Time;durP1;ratioP1;P1;durP2;ratioP2;P2;SDS_P1;SDS_P2;PMS_P1;PMS_P2;Temp;Humidity;BMP_temperature;BMP_pressure;BME280_temperature;BME280_humidity;BME280_pressure;Samples;Min_cycle;Max_cycle;Signal;HPM_P1;HPM_P2
2022/03/11 00:01:17;;;;;;;15.13;9.23;;;4.20;99.90;;;;;;5071078;28;21118;-80
2022/03/11 00:03:44;;;;;;;16.90;9.50;;;4.10;99.90;;;;;;5069250;28;20526;-81
2022/03/11 00:06:11;;;;;;;16.80;9.77;;;4.10;99.90;;;;;;5075153;28;20807;-82
2022/03/11 00:08:37;;;;;;;14.20;8.87;;;4.10;99.90;;;;;;5080268;28;20491;-82
2022/03/11 00:11:05;;;;;;;14.93;9.20;;;4.10;99.90;;;;;;5080679;28;20548;-81
2022/03/11 00:13:32;;;;;;;15.93;10.33;;;4.10;99.90;;;;;;5078431;28;20489;-81
2022/03/11 00:15:58;;;;;;;15.10;9.07;;;4.00;99.90;;;;;;5085884;28;20532;-81
2022/03/11 00:18:27;;;;;;;12.93;8.27;;;4.10;99.90;;;;;;5075917;28;20449;-80
2022/03/11 00:20:53;;;;;;;13.93;9.37;;;4.00;99.90;;;;;;5079604;28;20885;-80
2022/03/11 00:23:20;;;;;;;13.30;8.83;;;4.00;99.90;;;;;;5077876;28;20456;-80
2022/03/11 00:25:47;;;;;;;17.57;9.93;;;3.90;99.90;;;;;;5066286;28;20475;-81
2022/03/11 00:28:14;;;;;;;16.03;9.50;;;3.80;99.90;;;;;;5061455;28;20443;-80
2022/03/11 00:30:41;;;;;;;14.00;9.03;;;3.80;99.90;;;;;;5057834;28;20517;-81
2022/03/11 00:33:08;;;;;;;15.23;9.23;;;3.80;99.90;;;;;;5061732;28;20461;-82
2022/03/11 00:35:36;;;;;;;13.27;8.80;;;3.80;99.90;;;;;;5066732;28;20502;-80
2022/03/11 00:38:03;;;;;;;10.00;7.97;;;3.80;99.90;;;;;;5061001;28;20547;-81
2022/03/11 00:40:30;;;;;;;15.60;9.60;;;3.70;99.90;;;;;;5077473;28;20440;-81
2022/03/11 00:42:57;;;;;;;14.80;9.80;;;3.70;99.90;;;;;;5075431;28;20452;-80
2022/03/11 00:45:23;;;;;;;13.80;8.23;;;3.70;99.90;;;;;;5056944;28;20488;-79
2022/03/11 00:47:50;;;;;;;14.53;9.00;;;3.60;99.90;;;;;;5059233;28;20457;-81
2022/03/11 00:50:17;;;;;;;17.83;8.77;;;3.60;99.90;;;;;;5058363;28;20482;-81
2022/03/11 00:52:45;;;;;;;12.17;7.77;;;3.60;99.90;;;;;;5058255;28;20476;-81
2022/03/11 00:55:12;;;;;;;14.40;9.60;;;3.60;99.90;;;;;;5057104;28;20472;-80
2022/03/11 00:57:39;;;;;;;12.80;8.73;;;3.50;99.90;;;;;;5057960;28;20501;-81
2022/03/11 01:00:08;;;;;;;13.27;9.00;;;3.50;99.90;;;;;;5058284;28;20468;-80
2022/03/11 01:02:35;;;;;;;13.90;9.00;;;3.40;99.90;;;;;;5058276;28;20935;-80
2022/03/11 01:05:03;;;;;;;15.47;9.53;;;3.40;99.90;;;;;;5057598;28;20564;-79
2022/03/11 01:07:31;;;;;;;15.03;9.67;;;3.40;99.90;;;;;;5058832;28;20456;-79
2022/03/11 01:09:59;;;;;;;15.87;9.73;;;3.30;99.90;;;;;;5058835;28;20462;-80
2022/03/11 01:12:26;;;;;;;16.50;9.60;;;3.30;99.90;;;;;;5058314;28;20559;-79
2022/03/11 01:14:53;;;;;;;17.00;9.30;;;3.40;99.90;;;;;;5057173;28;20555;-79
2022/03/11 01:17:20;;;;;;;15.27;9.47;;;3.40;99.90;;;;;;5063952;28;20453;-81
2022/03/11 01:19:47;;;;;;;13.93;9.33;;;3.30;99.90;;;;;;5078706;28;20451;-79
2022/03/11 01:22:13;;;;;;;11.07;8.17;;;3.30;99.90;;;;;;5077215;28;20452;-81
2022/03/11 01:24:40;;;;;;;11.70;8.37;;;3.20;99.90;;;;;;5076026;28;20472;-82
2022/03/11 01:27:08;;;;;;;16.80;9.87;;;3.20;99.90;;;;;;5071209;28;20434;-81
2022/03/11 01:29:35;;;;;;;15.57;10.07;;;3.20;99.90;;;;;;5058482;28;20463;-80
2022/03/11 01:32:02;;;;;;;13.30;8.73;;;3.20;99.90;;;;;;5063517;28;20493;-80
2022/03/11 01:34:29;;;;;;;14.83;9.33;;;3.20;99.90;;;;;;5076505;28;20471;-80
2022/03/11 01:36:56;;;;;;;17.40;9.87;;;3.10;99.90;;;;;;5073083;28;20450;-81
2022/03/11 01:39:23;;;;;;;13.40;8.40;;;3.10;99.90;;;;;;5058834;28;20464;-80
2022/03/11 01:41:50;;;;;;;14.00;8.10;;;3.10;99.90;;;;;;5074047;28;20463;-80
2022/03/11 01:44:19;;;;;;;14.40;9.20;;;3.10;99.90;;;;;;5078660;28;20470;-80
2022/03/11 01:46:46;;;;;;;19.97;11.97;;;3.10;99.90;;;;;;5064595;28;20446;-79
2022/03/11 01:49:13;;;;;;;15.63;11.10;;;3.10;99.90;;;;;;5061509;28;20491;-80
2022/03/11 01:51:42;;;;;;;19.70;11.00;;;3.10;99.90;;;;;;5074397;28;20889;-81
2022/03/11 01:54:10;;;;;;;18.03;10.60;;;3.10;99.90;;;;;;5076661;28;20471;-80
2022/03/11 01:56:38;;;;;;;18.53;9.93;;;3.00;99.90;;;;;;5064580;28;20427;-81
2022/03/11 01:59:05;;;;;;;17.87;10.43;;;2.90;99.90;;;;;;5057449;28;20448;-81
2022/03/11 02:01:34;;;;;;;18.17;10.10;;;2.90;99.90;;;;;;5058648;28;20452;-81
2022/03/11 02:04:01;;;;;;;17.97;10.73;;;2.90;99.90;;;;;;5061125;28;20835;-79
2022/03/11 02:06:29;;;;;;;15.93;9.63;;;2.90;99.90;;;;;;5073401;28;20451;-82
2022/03/11 02:08:56;;;;;;;15.37;10.10;;;2.90;99.90;;;;;;5078983;28;20450;-81
2022/03/11 02:11:23;;;;;;;13.57;9.97;;;2.90;99.90;;;;;;5077856;28;20860;-80
2022/03/11 02:13:52;;;;;;;14.83;9.03;;;3.00;99.90;;;;;;5081721;28;20459;-79
2022/03/11 02:16:20;;;;;;;17.30;9.20;;;2.90;99.90;;;;;;5084664;28;20452;-79
2022/03/11 02:18:49;;;;;;;16.80;10.83;;;2.90;99.90;;;;;;5083850;28;20535;-78
2022/03/11 02:21:17;;;;;;;14.87;9.40;;;2.90;99.90;;;;;;5085485;28;20455;-80
2022/03/11 02:23:47;;;;;;;12.30;8.23;;;2.90;99.90;;;;;;5070263;28;20868;-79
2022/03/11 02:26:15;;;;;;;14.30;8.93;;;2.90;99.90;;;;;;5078561;28;20425;-79
2022/03/11 02:28:43;;;;;;;14.30;8.70;;;2.80;99.90;;;;;;5063875;28;20479;-80
2022/03/11 02:31:10;;;;;;;13.10;8.87;;;2.70;99.90;;;;;;5063565;28;20492;-79
2022/03/11 02:33:37;;;;;;;14.50;9.20;;;2.70;99.90;;;;;;5071281;28;20999;-81
2022/03/11 02:36:04;;;;;;;15.07;9.43;;;2.70;99.90;;;;;;5080368;28;20545;-81
2022/03/11 02:38:30;;;;;;;14.47;9.30;;;2.60;99.90;;;;;;5070026;28;20434;-83
2022/03/11 02:40:59;;;;;;;12.93;8.90;;;2.60;99.90;;;;;;5061551;28;20459;-82
2022/03/11 02:43:26;;;;;;;12.20;8.53;;;2.60;99.90;;;;;;5059593;28;20448;-82
2022/03/11 02:45:53;;;;;;;15.50;8.87;;;2.50;99.90;;;;;;5059926;28;20475;-81
2022/03/11 02:48:20;;;;;;;12.70;9.03;;;2.50;99.90;;;;;;5060329;28;20447;-79
2022/03/11 02:50:47;;;;;;;15.67;8.53;;;2.50;99.90;;;;;;5060017;28;20459;-81
2022/03/11 02:53:14;;;;;;;15.80;9.30;;;2.50;99.90;;;;;;5079563;28;20457;-81
2022/03/11 02:55:41;;;;;;;15.10;8.60;;;2.50;99.90;;;;;;5070363;28;20465;-83
2022/03/11 02:58:09;;;;;;;13.53;8.53;;;2.40;99.90;;;;;;5060353;28;20535;-82
2022/03/11 03:00:36;;;;;;;11.40;8.10;;;2.40;99.90;;;;;;5072220;28;20457;-81
2022/03/11 03:03:03;;;;;;;16.23;10.10;;;2.40;99.90;;;;;;5077146;28;20817;-81
2022/03/11 03:05:30;;;;;;;16.83;8.90;;;2.40;99.90;;;;;;5076862;28;20470;-81
2022/03/11 03:07:57;;;;;;;18.23;9.73;;;2.30;99.90;;;;;;5080385;28;20955;-81
2022/03/11 03:10:25;;;;;;;12.80;9.57;;;2.20;99.90;;;;;;5080638;28;20459;-82
2022/03/11 03:12:52;;;;;;;15.57;8.50;;;2.20;99.90;;;;;;5059433;28;20893;-82
2022/03/11 03:15:20;;;;;;;13.93;9.80;;;2.20;99.90;;;;;;5059813;28;20472;-81
2022/03/11 03:17:47;;;;;;;18.27;9.93;;;2.10;99.90;;;;;;5075333;28;20502;-79
2022/03/11 03:20:14;;;;;;;18.83;9.83;;;2.10;99.90;;;;;;5072043;28;20467;-81
2022/03/11 03:22:41;;;;;;;15.43;9.93;;;2.10;99.90;;;;;;5077116;28;20461;-81
2022/03/11 03:25:09;;;;;;;14.30;9.70;;;2.00;99.90;;;;;;5077828;28;20766;-80
2022/03/11 03:27:36;;;;;;;13.80;10.10;;;2.00;99.90;;;;;;5069666;28;20452;-79
2022/03/11 03:30:04;;;;;;;17.23;9.40;;;2.00;99.90;;;;;;5059420;28;20452;-81
2022/03/11 03:32:33;;;;;;;18.20;9.50;;;1.90;99.90;;;;;;5059079;28;20459;-81
2022/03/11 03:34:59;;;;;;;16.23;10.20;;;1.90;99.90;;;;;;5062200;28;20475;-80
2022/03/11 03:37:26;;;;;;;13.00;9.60;;;1.90;99.90;;;;;;5080206;28;20455;-80
2022/03/11 03:39:53;;;;;;;14.03;8.80;;;1.90;99.90;;;;;;5077779;28;20827;-81
2022/03/11 03:42:20;;;;;;;14.77;9.60;;;1.90;99.90;;;;;;5079264;28;20493;-81
2022/03/11 03:44:46;;;;;;;15.23;9.63;;;1.90;99.90;;;;;;5075894;28;20489;-78
2022/03/11 03:47:13;;;;;;;16.47;9.63;;;1.90;99.90;;;;;;5083794;28;20538;-81
2022/03/11 03:49:41;;;;;;;18.00;9.40;;;2.00;99.90;;;;;;5079048;28;20459;-80
2022/03/11 03:52:11;;;;;;;14.43;8.87;;;2.00;99.90;;;;;;5078147;28;20450;-81
2022/03/11 03:54:39;;;;;;;15.27;8.40;;;2.30;99.90;;;;;;5078538;28;20467;-81
2022/03/11 03:57:06;;;;;;;15.17;8.13;;;2.40;99.90;;;;;;5059411;28;20467;-83
2022/03/11 03:59:32;;;;;;;14.60;8.10;;;2.40;99.90;;;;;;5076563;28;20462;-82
2022/03/11 04:01:59;;;;;;;13.80;7.77;;;2.60;99.90;;;;;;5077445;28;20897;-80
2022/03/11 04:04:26;;;;;;;10.53;7.53;;;2.70;99.90;;;;;;5067147;28;20446;-81
2022/03/11 04:06:54;;;;;;;10.00;7.23;;;2.90;99.90;;;;;;5059065;28;20546;-81
2022/03/11 04:09:21;;;;;;;12.70;6.37;;;3.30;99.90;;;;;;5067779;28;20478;-81
2022/03/11 04:11:48;;;;;;;15.03;8.63;;;3.50;99.90;;;;;;5077521;28;20491;-80
2022/03/11 04:14:14;;;;;;;9.07;5.80;;;3.60;99.90;;;;;;5075898;28;20982;-81
2022/03/11 04:16:41;;;;;;;10.83;6.10;;;3.80;99.90;;;;;;5077426;28;20456;-81
2022/03/11 04:19:08;;;;;;;10.27;7.03;;;3.80;99.90;;;;;;5072719;28;20448;-82
2022/03/11 04:21:35;;;;;;;10.80;6.73;;;4.00;99.90;;;;;;5059219;28;20444;-82
2022/03/11 04:24:12;;;;;;;11.30;6.63;;;4.20;99.90;;;;;;5058721;28;20478;-82
2022/03/11 04:26:40;;;;;;;11.60;7.53;;;4.30;99.90;;;;;;5057646;28;20432;-82
2022/03/11 04:29:07;;;;;;;10.13;6.40;;;4.30;99.90;;;;;;5064035;28;20831;-82
2022/03/11 04:31:34;;;;;;;11.37;6.57;;;4.30;99.90;;;;;;5076037;28;20581;-81
2022/03/11 04:34:01;;;;;;;8.57;5.53;;;4.40;99.90;;;;;;5072799;28;20499;-82
2022/03/11 04:36:28;;;;;;;11.60;7.07;;;4.30;99.90;;;;;;5059263;28;20452;-81
2022/03/11 04:38:55;;;;;;;11.60;6.70;;;4.40;99.90;;;;;;5073016;28;20478;-82
2022/03/11 04:41:23;;;;;;;11.47;7.27;;;4.50;99.90;;;;;;5078981;28;20453;-82
2022/03/11 04:43:50;;;;;;;15.70;7.80;;;4.70;99.90;;;;;;5077556;28;20456;-82
2022/03/11 04:46:17;;;;;;;10.10;6.47;;;4.70;99.90;;;;;;5073860;28;20468;-82
2022/03/11 04:48:47;;;;;;;12.73;7.63;;;4.70;99.90;;;;;;5065877;28;20460;-82
2022/03/11 04:51:14;;;;;;;12.07;7.23;;;4.80;99.90;;;;;;5063809;28;20483;-81
2022/03/11 04:53:41;;;;;;;12.57;7.40;;;4.90;99.90;;;;;;5058006;28;20454;-82
2022/03/11 04:56:08;;;;;;;12.87;7.70;;;4.90;99.90;;;;;;5068523;28;20465;-82
2022/03/11 04:58:36;;;;;;;10.77;6.77;;;5.10;99.90;;;;;;5077613;28;20457;-82
2022/03/11 05:01:03;;;;;;;16.27;8.80;;;5.10;99.90;;;;;;5076675;28;20452;-82
2022/03/11 05:03:30;;;;;;;13.30;7.80;;;5.20;99.90;;;;;;5077602;28;20455;-82
2022/03/11 05:05:56;;;;;;;11.90;7.90;;;5.20;99.90;;;;;;5061554;28;20465;-82
2022/03/11 05:08:24;;;;;;;12.30;8.43;;;5.30;99.90;;;;;;5058566;28;20833;-82
2022/03/11 05:10:50;;;;;;;14.43;9.27;;;5.30;99.90;;;;;;5072320;28;20451;-82
2022/03/11 05:13:17;;;;;;;12.13;7.77;;;5.20;99.90;;;;;;5077064;28;20494;-80
2022/03/11 05:15:45;;;;;;;9.57;7.13;;;5.50;99.90;;;;;;5064458;28;20552;-82
2022/03/11 05:18:12;;;;;;;15.03;9.00;;;5.80;99.90;;;;;;5057488;28;20455;-82
2022/03/11 05:20:39;;;;;;;15.43;8.20;;;5.80;99.90;;;;;;5069488;28;20472;-81
2022/03/11 05:23:06;;;;;;;14.80;8.50;;;5.80;99.90;;;;;;5077981;28;20449;-82
2022/03/11 05:25:33;;;;;;;12.70;8.70;;;5.80;99.90;;;;;;5076936;28;20453;-83
2022/03/11 05:28:00;;;;;;;17.00;9.87;;;5.80;99.90;;;;;;5078076;28;20543;-82
2022/03/11 05:30:27;;;;;;;16.10;10.10;;;5.80;99.90;;;;;;5078226;28;20474;-82
2022/03/11 05:32:55;;;;;;;12.00;8.80;;;5.80;99.90;;;;;;5078581;28;20511;-81
2022/03/11 05:35:22;;;;;;;14.37;9.20;;;5.90;99.90;;;;;;5076432;28;20480;-82
2022/03/11 05:37:48;;;;;;;12.83;8.87;;;5.90;99.90;;;;;;5078447;28;20808;-81
2022/03/11 05:40:16;;;;;;;16.70;9.93;;;6.00;99.90;;;;;;5076790;28;20540;-82
2022/03/11 05:42:43;;;;;;;15.73;9.37;;;5.90;99.90;;;;;;5078866;28;20451;-80
2022/03/11 05:45:10;;;;;;;17.00;10.10;;;5.90;99.90;;;;;;5072423;28;20482;-82
2022/03/11 05:47:39;;;;;;;14.57;9.60;;;5.80;99.90;;;;;;5058824;28;20446;-81
2022/03/11 05:50:08;;;;;;;16.97;9.90;;;5.80;99.90;;;;;;5076638;28;20454;-82
2022/03/11 05:52:37;;;;;;;16.10;10.77;;;5.70;99.90;;;;;;5075137;28;20859;-80
2022/03/11 05:55:04;;;;;;;15.10;10.83;;;5.70;99.90;;;;;;5059673;28;20511;-83
2022/03/11 05:57:31;;;;;;;15.50;9.60;;;5.80;99.90;;;;;;5057419;28;20490;-82
2022/03/11 05:59:58;;;;;;;14.50;10.17;;;5.70;99.90;;;;;;5057422;28;20454;-80
2022/03/11 06:02:25;;;;;;;14.57;9.40;;;5.70;99.90;;;;;;5060780;28;20950;-81
2022/03/11 06:04:52;;;;;;;13.70;10.57;;;5.70;99.90;;;;;;5058445;28;20474;-81
2022/03/11 06:07:20;;;;;;;19.60;10.43;;;5.60;99.90;;;;;;5074771;28;20539;-80
2022/03/11 06:09:47;;;;;;;14.43;9.97;;;5.60;99.90;;;;;;5056467;28;20455;-80
2022/03/11 06:12:14;;;;;;;15.10;10.37;;;5.60;99.90;;;;;;5055811;28;20491;-78
2022/03/11 06:14:41;;;;;;;17.80;11.70;;;5.70;99.90;;;;;;5051787;28;20478;-78
2022/03/11 06:17:08;;;;;;;16.33;10.50;;;5.70;99.90;;;;;;5053140;28;20970;-79
2022/03/11 06:19:35;;;;;;;12.93;10.27;;;5.60;99.90;;;;;;5056710;28;20470;-81
2022/03/11 06:22:02;;;;;;;17.40;10.60;;;5.60;99.90;;;;;;5056044;28;20940;-81
2022/03/11 06:24:30;;;;;;;15.33;10.73;;;5.60;99.90;;;;;;5055316;28;20914;-81
2022/03/11 06:26:57;;;;;;;15.53;10.23;;;5.60;99.90;;;;;;5055817;28;20955;-81
2022/03/11 06:29:23;;;;;;;14.60;9.67;;;5.50;99.90;;;;;;5057281;28;20462;-81
2022/03/11 06:31:50;;;;;;;14.43;9.03;;;5.60;99.90;;;;;;5056004;28;20455;-82
2022/03/11 06:34:17;;;;;;;16.63;11.20;;;5.60;99.90;;;;;;5055231;28;20478;-81
2022/03/11 06:36:44;;;;;;;24.27;11.17;;;5.60;99.90;;;;;;5056044;28;20569;-82
2022/03/11 06:39:13;;;;;;;16.50;10.33;;;5.60;99.90;;;;;;5056321;28;20465;-78
2022/03/11 06:41:41;;;;;;;17.97;10.27;;;5.60;99.90;;;;;;5056237;28;20474;-80
2022/03/11 06:44:09;;;;;;;18.60;10.77;;;5.60;99.90;;;;;;5055210;28;20469;-81
2022/03/11 06:46:35;;;;;;;19.97;10.10;;;5.60;99.90;;;;;;5055343;28;20455;-80
2022/03/11 06:49:03;;;;;;;16.77;10.17;;;5.70;99.90;;;;;;5057252;28;20446;-80
2022/03/11 06:51:30;;;;;;;17.00;10.93;;;5.70;99.90;;;;;;5062220;28;20508;-83
2022/03/11 06:53:56;;;;;;;17.27;10.77;;;5.60;99.90;;;;;;5061026;28;20571;-82
2022/03/11 06:56:23;;;;;;;18.43;10.60;;;5.80;99.90;;;;;;5062560;28;20457;-82
2022/03/11 06:58:51;;;;;;;18.00;10.60;;;5.80;99.90;;;;;;5061554;28;20530;-82
2022/03/11 07:01:18;;;;;;;17.97;11.97;;;5.80;99.90;;;;;;5069752;28;20448;-84
2022/03/11 07:03:45;;;;;;;18.90;10.30;;;5.90;99.90;;;;;;5079756;28;20518;-83
2022/03/11 07:06:12;;;;;;;20.73;10.10;;;5.90;99.90;;;;;;5076298;28;20457;-84
2022/03/11 07:08:39;;;;;;;18.87;11.03;;;6.00;99.90;;;;;;5077121;28;20461;-83
2022/03/11 07:11:07;;;;;;;16.30;10.63;;;6.00;99.90;;;;;;5076767;28;20446;-83
2022/03/11 07:13:34;;;;;;;20.90;10.87;;;6.10;99.90;;;;;;5060415;28;20496;-83
2022/03/11 07:16:02;;;;;;;19.33;11.00;;;6.10;99.90;;;;;;5059244;28;20482;-83
2022/03/11 07:18:29;;;;;;;15.20;10.33;;;6.10;99.90;;;;;;5059796;28;20526;-83
2022/03/11 07:20:55;;;;;;;16.20;10.43;;;6.10;99.90;;;;;;5062919;28;20963;-83
2022/03/11 07:23:22;;;;;;;19.23;10.63;;;6.20;99.90;;;;;;5083172;28;21033;-83
2022/03/11 07:25:50;;;;;;;15.80;10.13;;;6.20;99.90;;;;;;5064978;28;21014;-84
2022/03/11 07:28:18;;;;;;;17.57;12.00;;;6.20;99.90;;;;;;5062040;28;20459;-83
2022/03/11 07:30:45;;;;;;;15.63;10.60;;;6.30;99.90;;;;;;5074471;28;20962;-83
2022/03/11 07:33:13;;;;;;;18.80;10.83;;;6.30;99.90;;;;;;5069466;28;20494;-83
2022/03/11 07:35:40;;;;;;;15.30;10.27;;;6.40;99.90;;;;;;5072727;28;20472;-83
2022/03/11 07:38:07;;;;;;;14.73;10.13;;;6.50;99.90;;;;;;5071138;28;20457;-83
2022/03/11 07:40:34;;;;;;;22.03;10.40;;;6.50;99.90;;;;;;5067276;28;20515;-82
2022/03/11 07:43:02;;;;;;;17.07;10.83;;;6.60;99.90;;;;;;5068201;28;20442;-83
2022/03/11 07:45:29;;;;;;;21.20;11.63;;;6.70;99.90;;;;;;5067889;28;20474;-82
2022/03/11 07:47:56;;;;;;;15.77;10.87;;;6.70;99.90;;;;;;5069305;28;20453;-83
2022/03/11 07:50:24;;;;;;;17.67;10.40;;;6.80;99.90;;;;;;5066150;28;20976;-83
2022/03/11 07:52:51;;;;;;;17.73;11.17;;;6.80;99.90;;;;;;5068774;28;21015;-84
2022/03/11 07:55:18;;;;;;;16.70;10.00;;;6.90;99.90;;;;;;5065278;28;20565;-83
2022/03/11 07:58:00;;;;;;;14.70;9.73;;;6.80;99.90;;;;;;5067817;28;20447;-82
2022/03/11 08:00:27;;;;;;;20.43;12.17;;;7.20;99.90;;;;;;5056672;28;20454;-83
2022/03/11 08:03:00;;;;;;;16.20;10.20;;;7.10;99.90;;;;;;5057186;28;20473;-82
2022/03/11 08:05:30;;;;;;;16.60;11.53;;;7.20;99.90;;;;;;5054746;22;20504;-83
2022/03/11 08:07:57;;;;;;;16.23;10.63;;;;;;;;;;5036444;28;20515;-84
2022/03/11 08:10:24;;;;;;;16.03;10.50;;;7.30;99.90;;;;;;5033543;28;20466;-83
2022/03/11 08:12:53;;;;;;;19.87;10.50;;;7.40;99.90;;;;;;5032120;28;20488;-83
2022/03/11 08:15:20;;;;;;;13.27;10.63;;;7.60;99.90;;;;;;5029252;28;20512;-83
2022/03/11 08:17:47;;;;;;;16.83;10.47;;;7.90;99.90;;;;;;5034692;28;20527;-82
2022/03/11 08:20:15;;;;;;;15.00;10.60;;;8.20;99.90;;;;;;5038134;28;20943;-82
2022/03/11 08:22:43;;;;;;;19.80;11.50;;;8.60;99.90;;;;;;5035575;28;20461;-83
2022/03/11 08:25:10;;;;;;;19.00;11.47;;;9.10;99.90;;;;;;5038447;28;20469;-82
2022/03/11 08:27:38;;;;;;;18.47;11.23;;;9.20;99.90;;;;;;5039938;28;20508;-83
2022/03/11 08:30:06;;;;;;;17.13;12.00;;;9.20;99.90;;;;;;5039270;28;20537;-83
2022/03/11 08:32:33;;;;;;;16.77;12.87;;;9.40;99.90;;;;;;5032467;28;20464;-84
2022/03/11 08:34:59;;;;;;;22.23;11.40;;;9.80;99.90;;;;;;5037139;28;20478;-83
2022/03/11 08:37:26;;;;;;;18.80;10.93;;;9.70;99.90;;;;;;5038479;28;20460;-83
2022/03/11 08:39:55;;;;;;;18.07;11.27;;;10.20;99.90;;;;;;5038508;28;20473;-83
2022/03/11 08:42:22;;;;;;;17.93;11.00;;;10.90;99.90;;;;;;5037921;28;20460;-84
2022/03/11 08:44:49;;;;;;;17.30;11.20;;;11.50;99.90;;;;;;5036866;28;20465;-82
2022/03/11 08:47:16;;;;;;;20.63;13.87;;;11.70;99.90;;;;;;5038138;28;20456;-84
2022/03/11 08:49:43;;;;;;;18.33;11.60;;;11.80;99.90;;;;;;5032069;28;20480;-83
2022/03/11 08:52:10;;;;;;;18.43;11.20;;;11.70;99.90;;;;;;5034105;28;20513;-82
2022/03/11 08:54:37;;;;;;;15.73;10.40;;;12.10;99.70;;;;;;5045474;28;20501;-81
2022/03/11 08:57:05;;;;;;;14.83;10.73;;;12.70;99.20;;;;;;5040132;28;20472;-83
2022/03/11 08:59:32;;;;;;;14.33;10.10;;;13.60;96.90;;;;;;5035558;28;20822;-83
2022/03/11 09:01:59;;;;;;;15.17;11.10;;;14.40;95.20;;;;;;5040452;28;20478;-83
2022/03/11 09:04:25;;;;;;;13.13;10.53;;;15.00;92.30;;;;;;5039346;28;20473;-83
2022/03/11 09:06:52;;;;;;;13.90;9.90;;;15.10;91.00;;;;;;5039566;28;20457;-83
2022/03/11 09:09:19;;;;;;;15.17;11.20;;;15.20;88.40;;;;;;5037729;28;20464;-83
2022/03/11 09:11:46;;;;;;;17.80;11.50;;;15.80;88.30;;;;;;5039287;28;20462;-83
2022/03/11 09:14:14;;;;;;;15.67;11.07;;;15.70;82.60;;;;;;5039708;28;20499;-84
2022/03/11 09:16:41;;;;;;;26.10;12.80;;;15.90;80.30;;;;;;5040348;28;20449;-83
2022/03/11 09:19:08;;;;;;;16.63;11.27;;;16.30;80.90;;;;;;5039715;28;20460;-82
2022/03/11 09:21:35;;;;;;;13.20;10.00;;;16.00;76.80;;;;;;5039141;28;20463;-83
2022/03/11 09:24:02;;;;;;;15.50;10.47;;;17.00;71.50;;;;;;5038525;28;20459;-83
2022/03/11 09:26:29;;;;;;;14.47;11.00;;;16.90;72.40;;;;;;5039181;28;20459;-84
2022/03/11 09:28:56;;;;;;;13.87;10.57;;;16.30;66.60;;;;;;5035488;28;20454;-83
2022/03/11 09:31:24;;;;;;;14.87;11.00;;;16.60;67.10;;;;;;5039087;28;20548;-84
2022/03/11 09:33:51;;;;;;;11.60;9.60;;;17.00;66.20;;;;;;5038765;28;20485;-84
2022/03/11 09:36:18;;;;;;;12.90;10.33;;;18.30;70.30;;;;;;5038417;28;20468;-84
2022/03/11 09:38:46;;;;;;;12.47;11.13;;;19.60;61.80;;;;;;5037504;28;20446;-84
2022/03/11 09:41:13;;;;;;;13.77;10.93;;;20.40;62.70;;;;;;5026525;28;20459;-84
2022/03/11 09:43:40;;;;;;;13.90;11.27;;;21.20;59.40;;;;;;5037559;28;20444;-83
2022/03/11 09:46:10;;;;;;;15.33;12.23;;;21.10;53.80;;;;;;5033852;28;20479;-83
2022/03/11 09:48:39;;;;;;;13.57;11.30;;;21.40;52.90;;;;;;5031769;28;20452;-83
2022/03/11 09:51:06;;;;;;;11.73;10.20;;;21.80;51.20;;;;;;5034608;28;20454;-84
2022/03/11 09:53:33;;;;;;;13.13;10.67;;;22.80;51.90;;;;;;5032233;28;20477;-84
2022/03/11 09:55:59;;;;;;;17.00;10.43;;;22.60;48.90;;;;;;5033268;28;20472;-82
2022/03/11 09:58:26;;;;;;;12.90;11.20;;;22.10;47.00;;;;;;5032101;28;20456;-83
2022/03/11 10:00:53;;;;;;;14.80;11.27;;;22.70;47.10;;;;;;5035765;28;20463;-83
2022/03/11 10:03:20;;;;;;;14.00;11.27;;;22.20;48.00;;;;;;5035701;28;20461;-84
2022/03/11 10:05:51;;;;;;;14.63;9.53;;;23.00;48.00;;;;;;5037091;28;20535;-83
2022/03/11 10:08:18;;;;;;;12.03;10.37;;;23.80;46.20;;;;;;5039700;28;20444;-84
2022/03/11 10:10:45;;;;;;;12.17;10.60;;;22.90;43.70;;;;;;5035661;28;20464;-83
2022/03/11 10:13:13;;;;;;;13.63;10.67;;;23.80;45.60;;;;;;5025157;28;20480;-83
2022/03/11 10:15:40;;;;;;;14.07;10.50;;;23.50;44.10;;;;;;5031729;28;20476;-83
2022/03/11 10:18:09;;;;;;;12.90;10.43;;;23.50;43.60;;;;;;5030583;28;20453;-84
2022/03/11 10:20:36;;;;;;;12.03;10.80;;;24.50;45.70;;;;;;5033315;28;20540;-84
2022/03/11 10:23:11;;;;;;;12.23;10.93;;;26.20;44.80;;;;;;5033654;28;20517;-84
2022/03/11 10:25:38;;;;;;;11.90;10.57;;;25.50;42.20;;;;;;5042227;28;20468;-82
2022/03/11 10:28:08;;;;;;;13.10;11.73;;;26.00;41.10;;;;;;5040687;28;20453;-83
2022/03/11 10:30:37;;;;;;;12.80;11.50;;;26.40;41.30;;;;;;5040827;28;20453;-83
2022/03/11 10:33:05;;;;;;;15.90;11.73;;;26.40;40.70;;;;;;5041443;28;20453;-82
2022/03/11 10:35:34;;;;;;;13.57;11.77;;;26.20;41.30;;;;;;5041626;28;20559;-83
2022/03/11 10:38:03;;;;;;;13.40;11.60;;;26.40;38.80;;;;;;5040954;28;20472;-82
2022/03/11 10:40:33;;;;;;;12.40;11.10;;;26.80;39.20;;;;;;5036705;28;20455;-83
2022/03/11 10:43:10;;;;;;;12.70;11.40;;;27.70;38.90;;;;;;5031915;28;20467;-82
2022/03/11 10:45:48;;;;;;;13.43;11.53;;;28.00;38.20;;;;;;5022886;28;20525;-82
2022/03/11 10:48:15;;;;;;;16.40;11.17;;;27.20;36.40;;;;;;5026196;28;20457;-82
2022/03/11 10:50:43;;;;;;;15.00;11.13;;;27.00;38.10;;;;;;5038846;28;20459;-86
2022/03/11 10:53:12;;;;;;;12.90;11.43;;;26.80;36.50;;;;;;5040325;28;20457;-82
2022/03/11 10:55:43;;;;;;;13.60;10.13;;;26.80;37.70;;;;;;5040305;28;20504;-81
2022/03/11 10:58:16;;;;;;;11.20;10.00;;;27.20;36.90;;;;;;5040246;28;20460;-83
2022/03/11 11:00:44;;;;;;;13.20;10.67;;;27.10;36.40;;;;;;5039898;28;20459;-82
2022/03/11 11:03:12;;;;;;;16.63;12.27;;;27.90;36.00;;;;;;5039988;28;20547;-79
2022/03/11 11:05:39;;;;;;;15.47;10.67;;;28.00;35.90;;;;;;5040318;28;20480;-82
2022/03/11 11:08:07;;;;;;;12.50;11.30;;;28.70;36.00;;;;;;5026518;28;20833;-82
2022/03/11 11:10:37;;;;;;;12.40;11.10;;;27.50;34.40;;;;;;5033018;28;20463;-84
2022/03/11 11:13:06;;;;;;;12.70;10.53;;;28.00;36.30;;;;;;5040920;28;20453;-82
2022/03/11 11:15:33;;;;;;;13.80;12.27;;;28.80;37.20;;;;;;5035138;28;21159;-82
2022/03/11 11:18:07;;;;;;;17.03;12.23;;;28.70;35.20;;;;;;5029539;28;20453;-81
2022/03/11 11:20:40;;;;;;;13.37;11.97;;;29.50;35.40;;;;;;5034135;28;20437;-82
2022/03/11 11:23:09;;;;;;;17.67;11.70;;;29.40;35.10;;;;;;5037345;28;20452;-81
2022/03/11 11:25:37;;;;;;;12.30;10.60;;;28.40;34.00;;;;;;5040166;28;20471;-82
2022/03/11 11:28:09;;;;;;;13.13;11.77;;;28.80;34.20;;;;;;5040273;28;20452;-83
2022/03/11 11:30:38;;;;;;;13.03;11.83;;;29.40;36.00;;;;;;5040738;28;20936;-82
2022/03/11 11:33:05;;;;;;;13.33;11.47;;;30.20;36.00;;;;;;5039873;28;20462;-82
2022/03/11 11:35:33;;;;;;;11.13;9.73;;;30.20;33.70;;;;;;5035977;28;20497;-84
2022/03/11 11:38:02;;;;;;;11.13;10.00;;;29.40;33.40;;;;;;5036054;28;20454;-82
2022/03/11 11:40:32;;;;;;;12.93;11.73;;;30.10;34.90;;;;;;5040754;28;20979;-82
2022/03/11 11:43:29;;;;;;;12.23;10.57;;;31.60;33.20;;;;;;5036904;28;20453;-81
2022/03/11 11:46:12;;;;;;;13.03;11.73;;;31.80;32.40;;;;;;5037984;28;20511;-82
2022/03/11 11:49:08;;;;;;;13.03;11.73;;;30.60;33.90;;;;;;5048063;28;20528;-84
2022/03/11 11:52:00;;;;;;;13.10;11.80;;;31.50;31.50;;;;;;5036127;28;20456;-82
2022/03/11 11:54:45;;;;;;;12.47;11.27;;;32.00;33.60;;;;;;5041322;28;20505;-83
2022/03/11 11:57:35;;;;;;;12.43;11.23;;;30.80;33.20;;;;;;5043380;28;20454;-81
2022/03/11 12:00:09;;;;;;;12.73;11.43;;;29.90;34.60;;;;;;5036074;28;20507;-82
2022/03/11 12:02:37;;;;;;;14.23;10.90;;;31.00;31.40;;;;;;5032416;28;20533;-83
2022/03/11 12:05:42;;;;;;;12.77;11.57;;;30.90;32.20;;;;;;5033896;28;20527;-82
2022/03/11 12:08:10;;;;;;;12.57;11.27;;;30.80;34.70;;;;;;5031208;28;21013;-82
2022/03/11 12:10:50;;;;;;;14.67;11.30;;;30.50;32.80;;;;;;5035981;28;20828;-85
2022/03/11 12:13:33;;;;;;;11.73;10.53;;;30.40;32.50;;;;;;5022131;28;20491;-83
2022/03/11 12:16:02;;;;;;;15.03;12.40;;;31.20;33.10;;;;;;5036676;28;20993;-83
2022/03/11 12:18:42;;;;;;;11.23;10.13;;;31.50;32.10;;;;;;5025104;28;20446;-83
2022/03/11 12:21:23;;;;;;;12.40;11.10;;;31.20;30.50;;;;;;5039050;28;20459;-86
2022/03/11 12:23:50;;;;;;;14.50;11.90;;;30.30;32.10;;;;;;5039964;28;20459;-84
2022/03/11 12:26:17;;;;;;;12.33;10.40;;;29.50;33.30;;;;;;5040131;28;20898;-83
2022/03/11 12:28:44;;;;;;;12.93;11.60;;;30.60;34.30;;;;;;5040114;28;20456;-84
2022/03/11 12:31:14;;;;;;;13.80;12.20;;;30.20;31.20;;;;;;5028582;28;20965;-83
2022/03/11 12:33:42;;;;;;;13.83;12.47;;;30.50;32.90;;;;;;5031810;28;20448;-84
2022/03/11 12:36:11;;;;;;;12.97;11.60;;;31.10;33.70;;;;;;5040607;28;20465;-84
2022/03/11 12:38:39;;;;;;;11.67;10.53;;;31.40;31.90;;;;;;5039470;28;20453;-85
2022/03/11 12:41:08;;;;;;;13.60;11.90;;;31.80;31.40;;;;;;5039810;28;20521;-83
2022/03/11 12:43:36;;;;;;;13.47;11.97;;;31.70;32.40;;;;;;5032557;28;20461;-83